Time;durP1;ratioP1;P1;durP2;ratioP2;P2;SDS_P1;SDS_P2;PMS_P1;PMS_P2;Temp;Humidity;BMP_temperature;BMP_pressure;BME280_temperature;BME280_humidity;BME280_pressure;Samples;Min_cycle;Max_cycle;Signal;HPM_P1;HPM_P2
2023/07/29 00:01:07;;;;;;;15.63;5.53;;;;;;;;;;4987803;28;20035;-84
2023/07/29 00:03:38;;;;;;;16.60;5.10;;;;;;;;;;4956453;28;20062;-84
2023/07/29 00:06:09;;;;;;;20.05;6.22;;;;;;;;;;4969155;28;20058;-84
2023/07/29 00:08:42;;;;;;;25.90;6.05;;;;;;;;;;4973839;28;20061;-83
2023/07/29 00:11:14;;;;;;;33.78;6.72;;;;;;;;;;4969827;28;20043;-85
2023/07/29 00:13:47;;;;;;;;;;;;;;;;;;4938516;29;20047;-85
2023/07/29 00:16:17;;;;;;;33.35;7.45;;;;;;;;;;4970267;28;19937;-83
2023/07/29 00:18:53;;;;;;;27.23;6.68;;;;;;;;;;4967898;28;20043;-85
2023/07/29 00:21:27;;;;;;;14.02;5.97;;;;;;;;;;4953667;28;20609;-83
2023/07/29 00:24:00;;;;;;;18.40;7.18;;;;;;;;;;4955394;28;20053;-83
2023/07/29 00:26:31;;;;;;;22.25;6.70;;;;;;;;;;4969225;28;20046;-84
2023/07/29 00:31:57;;;;;;;14.27;6.03;;;;;;;;;;4968358;28;20498;-83
2023/07/29 00:34:27;;;;;;;15.00;5.50;;;;;;;;;;4968216;28;20058;-85
2023/07/29 00:36:58;;;;;;;16.48;5.72;;;;;;;;;;4955500;28;20062;-85
2023/07/29 00:39:28;;;;;;;32.65;7.03;;;;;;;;;;4954687;28;20413;-86
2023/07/29 00:42:00;;;;;;;37.50;6.95;;;;;;;;;;4972505;28;20048;-82
2023/07/29 00:44:33;;;;;;;52.75;8.00;;;;;;;;;;4954567;28;20417;-83
2023/07/29 00:47:06;;;;;;;27.23;6.90;;;;;;;;;;4968000;28;20090;-84
2023/07/29 00:49:37;;;;;;;42.05;8.73;;;;;;;;;;4956016;28;20046;-87
2023/07/29 00:52:11;;;;;;;32.22;8.15;;;;;;;;;;4971789;28;20049;-83
2023/07/29 00:54:43;;;;;;;26.02;8.10;;;;;;;;;;4938140;29;20062;-84
2023/07/29 00:57:15;;;;;;;20.35;7.03;;;;;;;;;;4944557;28;20043;-85
2023/07/29 00:59:47;;;;;;;13.15;7.05;;;;;;;;;;4967407;28;20042;-84
2023/07/29 01:02:20;;;;;;;11.70;5.75;;;;;;;;;;4971879;28;20046;-83
2023/07/29 01:04:58;;;;;;;10.95;5.68;;;;;;;;;;4956038;28;20512;-82
2023/07/29 01:08:00;;;;;;;11.00;5.60;;;;;;;;;;4982122;28;20049;-82
2023/07/29 01:10:49;;;;;;;11.57;5.90;;;;;;;;;;4964862;28;20047;-85
2023/07/29 01:13:47;;;;;;;10.68;5.65;;;;;;;;;;4970717;28;20501;-85
2023/07/29 01:16:34;;;;;;;13.23;6.40;;;;;;;;;;4969547;28;20046;-84
2023/07/29 01:19:07;;;;;;;13.10;6.93;;;;;;;;;;4954126;28;20071;-83
2023/07/29 01:21:39;;;;;;;22.70;7.57;;;;;;;;;;4939042;28;20418;-84
2023/07/29 01:24:11;;;;;;;20.05;7.82;;;;;;;;;;4972150;28;20057;-87
2023/07/29 01:26:44;;;;;;;21.65;8.75;;;;;;;;;;4971059;28;20063;-83
2023/07/29 01:29:16;;;;;;;22.50;8.95;;;;;;;;;;4972563;28;20054;-84
2023/07/29 01:31:50;;;;;;;21.23;9.55;;;;;;;;;;4972586;28;20043;-85
2023/07/29 01:34:48;;;;;;;22.38;8.95;;;;;;;;;;4972518;28;20055;-84
2023/07/29 01:37:26;;;;;;;12.32;5.80;;;;;;;;;;4972686;28;20049;-84
2023/07/29 01:39:58;;;;;;;;;;;;;;;;;;4954902;28;20077;-84
2023/07/29 01:42:31;;;;;;;10.77;4.72;;;;;;;;;;4954307;28;19922;-84
2023/07/29 01:45:06;;;;;;;10.75;4.78;;;;;;;;;;4955496;28;20246;-84
2023/07/29 01:47:40;;;;;;;16.13;5.85;;;;;;;;;;4978981;28;20042;-84
2023/07/29 01:50:15;;;;;;;15.35;7.32;;;;;;;;;;4961277;28;20054;-84
2023/07/29 01:52:46;;;;;;;15.73;7.53;;;;;;;;;;4960941;28;20043;-87
2023/07/29 01:55:16;;;;;;;14.10;6.70;;;;;;;;;;4960685;28;20070;-86
2023/07/29 01:57:48;;;;;;;15.52;8.02;;;;;;;;;;4977247;28;20055;-84
2023/07/29 02:00:21;;;;;;;15.65;8.10;;;;;;;;;;4976690;28;20054;-84
2023/07/29 02:02:51;;;;;;;15.93;7.13;;;;;;;;;;4978830;28;20042;-84
2023/07/29 02:05:24;;;;;;;15.07;6.65;;;;;;;;;;4976610;28;20055;-83
2023/07/29 02:07:55;;;;;;;13.40;6.05;;;;;;;;;;4960734;28;20055;-86
2023/07/29 02:10:25;;;;;;;13.55;6.28;;;;;;;;;;4961800;28;20043;-85
2023/07/29 02:12:59;;;;;;;13.45;6.25;;;;;;;;;;4961283;28;20413;-84
2023/07/29 02:15:31;;;;;;;11.70;6.07;;;;;;;;;;4960986;28;20469;-84
2023/07/29 02:18:03;;;;;;;13.88;6.15;;;;;;;;;;4959852;28;20055;-83
2023/07/29 02:20:34;;;;;;;;;;;;;;;;;;4945515;28;20050;-84
2023/07/29 02:23:04;;;;;;;12.55;5.78;;;;;;;;;;4973338;28;19937;-85
2023/07/29 02:25:36;;;;;;;13.02;6.13;;;;;;;;;;4961696;28;20058;-83
2023/07/29 02:28:08;;;;;;;15.68;7.03;;;;;;;;;;4960854;28;20043;-83
2023/07/29 02:30:44;;;;;;;15.68;7.47;;;;;;;;;;4960791;28;20062;-83
2023/07/29 02:33:18;;;;;;;17.17;7.85;;;;;;;;;;4961658;28;20382;-84
2023/07/29 02:35:52;;;;;;;18.77;7.93;;;;;;;;;;4953877;28;20060;-84
2023/07/29 02:38:28;;;;;;;16.23;7.15;;;;;;;;;;4939361;29;20052;-85
2023/07/29 02:41:01;;;;;;;18.13;8.23;;;;;;;;;;4954552;29;20059;-86
2023/07/29 02:43:31;;;;;;;17.50;7.57;;;;;;;;;;4938192;29;20059;-86
2023/07/29 02:46:06;;;;;;;12.93;6.65;;;;;;;;;;4953417;28;20048;-84
2023/07/29 02:48:37;;;;;;;14.23;7.88;;;;;;;;;;4937638;29;20035;-85
2023/07/29 02:51:08;;;;;;;19.88;8.02;;;;;;;;;;4939082;29;20056;-83
2023/07/29 02:53:38;;;;;;;16.70;8.30;;;;;;;;;;4938937;29;20052;-86
2023/07/29 02:56:11;;;;;;;15.32;8.00;;;;;;;;;;4938164;29;20526;-82
2023/07/29 02:58:42;;;;;;;17.90;7.82;;;;;;;;;;4935876;29;20043;-85
2023/07/29 03:01:12;;;;;;;21.70;8.45;;;;;;;;;;4934477;29;20391;-84
2023/07/29 03:03:43;;;;;;;16.17;7.65;;;;;;;;;;4936431;29;20054;-84
2023/07/29 03:06:15;;;;;;;18.23;8.25;;;;;;;;;;4934789;29;20059;-85
2023/07/29 03:08:48;;;;;;;14.52;7.47;;;;;;;;;;4928155;29;20044;-83
2023/07/29 03:11:18;;;;;;;14.95;5.88;;;;;;;;;;4953434;29;20051;-87
2023/07/29 03:13:48;;;;;;;10.68;6.03;;;;;;;;;;4937134;29;20475;-85
2023/07/29 03:16:19;;;;;;;12.15;6.32;;;;;;;;;;4938149;29;20043;-84
2023/07/29 03:18:57;;;;;;;14.27;7.03;;;;;;;;;;4938149;29;20051;-83
2023/07/29 03:21:30;;;;;;;12.65;6.85;;;;;;;;;;4935436;29;20052;-85
2023/07/29 03:24:06;;;;;;;14.85;7.20;;;;;;;;;;4935866;29;20047;-83
2023/07/29 03:26:37;;;;;;;14.82;7.05;;;;;;;;;;4937142;29;20052;-86
2023/07/29 03:29:08;;;;;;;17.13;7.30;;;;;;;;;;4938524;29;20052;-86
2023/07/29 03:31:40;;;;;;;14.65;7.05;;;;;;;;;;4951977;29;20055;-83
2023/07/29 03:34:14;;;;;;;17.83;7.28;;;;;;;;;;4936548;29;20075;-85
2023/07/29 03:36:51;;;;;;;17.88;5.95;;;;;;;;;;4960611;28;20051;-84
2023/07/29 03:39:26;;;;;;;22.15;7.53;;;;;;;;;;4937904;29;20047;-84
2023/07/29 03:41:58;;;;;;;19.85;6.22;;;;;;;;;;4952576;29;20048;-84
2023/07/29 03:44:28;;;;;;;16.83;7.47;;;;;;;;;;4936272;29;20059;-85
2023/07/29 03:46:58;;;;;;;20.15;7.57;;;;;;;;;;4937974;29;20051;-85
2023/07/29 03:49:31;;;;;;;;;;;;;;;;;;4936357;29;20059;-84
2023/07/29 03:52:04;;;;;;;28.83;8.35;;;;;;;;;;4935581;29;19996;-85
2023/07/29 03:54:35;;;;;;;41.63;10.90;;;;;;;;;;4936430;29;20056;-84
2023/07/29 03:57:08;;;;;;;18.42;6.25;;;;;;;;;;4936677;29;20058;-85
2023/07/29 03:59:42;;;;;;;12.18;5.47;;;;;;;;;;4936496;29;20490;-83
2023/07/29 04:02:17;;;;;;;13.73;5.55;;;;;;;;;;4937877;29;20491;-84
2023/07/29 04:04:49;;;;;;;10.68;5.57;;;;;;;;;;4936126;29;20062;-84
2023/07/29 04:07:19;;;;;;;13.13;5.57;;;;;;;;;;4921053;29;20059;-84
2023/07/29 04:09:52;;;;;;;16.63;5.85;;;;;;;;;;4937013;29;20058;-85
2023/07/29 04:12:24;;;;;;;10.63;6.00;;;;;;;;;;4936554;29;20070;-83
2023/07/29 04:14:56;;;;;;;9.77;5.07;;;;;;;;;;4937119;29;20047;-85
2023/07/29 04:17:26;;;;;;;12.15;6.47;;;;;;;;;;4935464;29;20512;-84
2023/07/29 04:19:58;;;;;;;10.63;5.60;;;;;;;;;;4936640;29;20056;-84
2023/07/29 04:22:36;;;;;;;11.98;4.68;;;;;;;;;;4935350;29;20067;-84
2023/07/29 04:25:07;;;;;;;8.05;4.50;;;;;;;;;;4936143;29;20394;-86
2023/07/29 04:27:38;;;;;;;8.45;4.38;;;;;;;;;;4935944;29;20074;-86
2023/07/29 04:30:11;;;;;;;5.38;2.72;;;;;;;;;;4935722;29;20048;-84
2023/07/29 04:32:44;;;;;;;8.07;4.28;;;;;;;;;;4935704;29;20048;-86
2023/07/29 04:35:18;;;;;;;8.38;4.53;;;;;;;;;;4938772;29;20048;-84
2023/07/29 04:37:49;;;;;;;10.07;4.80;;;;;;;;;;4936836;29;20058;-85
2023/07/29 04:43:21;;;;;;;7.97;4.22;;;;;;;;;;4936737;29;20054;-85
2023/07/29 04:45:52;;;;;;;5.03;2.60;;;;;;;;;;4935554;29;20058;-85
2023/07/29 04:48:24;;;;;;;9.10;5.03;;;;;;;;;;4938733;29;20486;-84
2023/07/29 04:50:58;;;;;;;7.32;3.88;;;;;;;;;;4938896;29;20051;-84
2023/07/29 04:53:29;;;;;;;14.88;5.43;;;;;;;;;;4937725;29;20059;-83
2023/07/29 04:56:02;;;;;;;8.57;4.32;;;;;;;;;;4935240;29;20414;-84
2023/07/29 04:58:35;;;;;;;;;;;;;;;;;;4937525;29;20394;-85
2023/07/29 05:01:07;;;;;;;6.07;3.15;;;;;;;;;;4937016;29;19938;-86
2023/07/29 05:03:40;;;;;;;9.82;5.63;;;;;;;;;;4934582;29;20110;-85
2023/07/29 05:06:10;;;;;;;13.60;7.00;;;;;;;;;;4936542;29;20043;-85
2023/07/29 05:08:40;;;;;;;14.82;7.28;;;;;;;;;;4935112;29;20483;-84
2023/07/29 05:11:11;;;;;;;15.63;7.07;;;;;;;;;;4934672;29;20062;-84
2023/07/29 05:13:43;;;;;;;11.38;5.32;;;;;;;;;;4935602;29;20075;-87
2023/07/29 05:16:15;;;;;;;10.25;5.75;;;;;;;;;;4935108;29;20070;-84
2023/07/29 05:18:45;;;;;;;11.23;5.70;;;;;;;;;;4935204;29;20067;-85
2023/07/29 05:21:17;;;;;;;10.95;5.70;;;;;;;;;;4934743;29;20063;-84
2023/07/29 05:23:49;;;;;;;9.48;4.88;;;;;;;;;;4934485;29;20055;-84
2023/07/29 05:26:19;;;;;;;8.80;4.43;;;;;;;;;;4935823;29;20409;-86
2023/07/29 05:28:49;;;;;;;7.53;4.45;;;;;;;;;;4934737;29;20085;-85
2023/07/29 05:31:24;;;;;;;8.63;4.70;;;;;;;;;;4936373;29;20486;-85
2023/07/29 05:33:59;;;;;;;9.90;4.82;;;;;;;;;;4934453;29;20055;-85
2023/07/29 05:36:32;;;;;;;6.00;3.03;;;;;;;;;;4947091;28;20062;-83
2023/07/29 05:39:03;;;;;;;7.05;4.03;;;;;;;;;;4974614;28;20051;-84
2023/07/29 05:41:33;;;;;;;8.65;5.25;;;;;;;;;;4974428;28;20042;-85
2023/07/29 05:44:05;;;;;;;9.38;5.03;;;;;;;;;;4955800;28;20058;-84
2023/07/29 05:46:39;;;;;;;8.82;4.55;;;;;;;;;;4974822;28;20043;-84
2023/07/29 05:49:10;;;;;;;11.00;5.35;;;;;;;;;;4956733;28;20046;-85
2023/07/29 05:51:43;;;;;;;7.97;4.82;;;;;;;;;;4972373;28;20061;-84
2023/07/29 05:54:15;;;;;;;8.20;4.43;;;;;;;;;;4973058;28;20059;-85
2023/07/29 05:56:48;;;;;;;9.77;5.47;;;;;;;;;;4957238;28;20055;-85
2023/07/29 05:59:23;;;;;;;10.10;5.40;;;;;;;;;;4956040;28;20051;-84
2023/07/29 06:01:55;;;;;;;11.25;5.50;;;;;;;;;;4956301;28;20061;-84
2023/07/29 06:04:28;;;;;;;10.57;5.75;;;;;;;;;;4957659;28;20377;-84
2023/07/29 06:07:00;;;;;;;10.35;5.72;;;;;;;;;;4957227;28;20050;-84
2023/07/29 06:09:33;;;;;;;9.77;5.53;;;;;;;;;;4971665;28;20058;-85
2023/07/29 06:12:04;;;;;;;10.45;5.38;;;;;;;;;;4956280;28;20051;-83
2023/07/29 06:14:35;;;;;;;11.65;6.25;;;;;;;;;;4956437;28;20047;-83
2023/07/29 06:17:06;;;;;;;9.63;5.70;;;;;;;;;;4974642;28;20050;-84
2023/07/29 06:19:39;;;;;;;12.18;5.70;;;;;;;;;;4956568;28;20123;-83
2023/07/29 06:22:10;;;;;;;10.07;5.57;;;;;;;;;;4974445;28;20050;-86
2023/07/29 06:24:44;;;;;;;12.27;5.22;;;;;;;;;;4956666;28;20503;-84
2023/07/29 06:27:21;;;;;;;10.68;5.63;;;;;;;;;;4961843;28;20044;-84
2023/07/29 06:29:53;;;;;;;12.60;6.13;;;;;;;;;;4954874;29;20048;-84
2023/07/29 06:32:23;;;;;;;11.13;5.68;;;;;;;;;;4953283;28;20066;-84
2023/07/29 06:34:55;;;;;;;8.27;4.57;;;;;;;;;;4958952;29;20051;-84
2023/07/29 06:37:26;;;;;;;11.77;5.10;;;;;;;;;;4958383;29;20054;-84
2023/07/29 06:39:58;;;;;;;10.50;5.43;;;;;;;;;;4956179;29;20051;-84
2023/07/29 06:42:31;;;;;;;9.82;4.95;;;;;;;;;;4958278;29;20050;-83
2023/07/29 06:45:02;;;;;;;11.18;4.97;;;;;;;;;;4956422;29;20059;-84
2023/07/29 06:47:35;;;;;;;13.00;5.97;;;;;;;;;;4972448;28;20043;-83
2023/07/29 06:50:07;;;;;;;13.02;6.55;;;;;;;;;;4958403;29;20482;-84
2023/07/29 06:52:38;;;;;;;17.83;7.53;;;;;;;;;;4955711;29;20078;-84
2023/07/29 06:55:09;;;;;;;23.98;8.38;;;;;;;;;;4957784;29;20073;-83
2023/07/29 06:57:42;;;;;;;21.10;8.18;;;;;;;;;;4956254;29;20422;-84
2023/07/29 07:00:12;;;;;;;15.38;6.72;;;;;;;;;;4971918;28;20062;-85
2023/07/29 07:02:42;;;;;;;15.77;6.80;;;;;;;;;;4957897;29;20054;-83
2023/07/29 07:05:18;;;;;;;15.75;7.22;;;;;;;;;;4972041;28;20051;-84
2023/07/29 07:07:51;;;;;;;17.38;7.07;;;;;;;;;;4959067;29;20059;-83
2023/07/29 07:10:22;;;;;;;17.20;6.93;;;;;;;;;;4958080;29;20047;-83
2023/07/29 07:12:55;;;;;;;16.23;7.35;;;;;;;;;;4957938;29;20062;-85
2023/07/29 07:15:25;;;;;;;15.20;6.85;;;;;;;;;;4957708;29;20109;-83
2023/07/29 07:17:57;;;;;;;15.95;7.20;;;;;;;;;;4955413;29;20055;-83
2023/07/29 07:20:27;;;;;;;17.67;7.70;;;;;;;;;;4955734;29;20055;-84
2023/07/29 07:22:58;;;;;;;15.73;7.05;;;;;;;;;;4940821;29;20062;-85
2023/07/29 07:25:28;;;;;;;16.58;7.55;;;;;;;;;;4958092;29;20063;-83
2023/07/29 07:28:03;;;;;;;19.42;7.95;;;;;;;;;;4956196;29;20051;-84
2023/07/29 07:30:43;;;;;;;16.75;7.15;;;;;;;;;;4957411;29;20046;-84
2023/07/29 07:33:13;;;;;;;20.20;7.50;;;;;;;;;;4957754;29;20039;-84
2023/07/29 07:35:46;;;;;;;19.25;7.80;;;;;;;;;;4955833;29;20062;-84
2023/07/29 07:38:17;;;;;;;20.48;8.30;;;;;;;;;;4940709;29;20055;-83
2023/07/29 07:40:57;;;;;;;25.60;9.60;;;;;;;;;;4956120;29;20054;-83
2023/07/29 07:43:27;;;;;;;20.40;8.25;;;;;;;;;;4954769;28;20051;-84
2023/07/29 07:46:01;;;;;;;25.13;9.13;;;;;;;;;;4954735;29;20489;-83
2023/07/29 07:48:38;;;;;;;27.70;9.70;;;;;;;;;;4956384;29;20047;-83
2023/07/29 07:51:14;;;;;;;27.75;10.07;;;;;;;;;;4957559;29;20047;-85
2023/07/29 07:53:46;;;;;;;31.23;10.25;;;;;;;;;;4955917;29;20500;-83
2023/07/29 07:56:19;;;;;;;29.48;10.88;;;;;;;;;;4955684;29;20062;-84
2023/07/29 07:58:51;;;;;;;27.92;9.65;;;;;;;;;;4956695;29;20058;-83
2023/07/29 08:01:25;;;;;;;26.17;8.30;;;;;;;;;;4970851;28;20051;-84
2023/07/29 08:03:55;;;;;;;30.80;10.88;;;;;;;;;;4956488;29;20375;-85
2023/07/29 08:06:26;;;;;;;39.30;11.85;;;;;;;;;;4956673;29;20055;-84
2023/07/29 08:08:58;;;;;;;37.78;11.80;;;;;;;;;;4956512;29;20058;-85
2023/07/29 08:11:30;;;;;;;15.13;6.75;;;;;;;;;;4956287;29;20494;-86
2023/07/29 08:14:01;;;;;;;35.92;11.88;;;;;;;;;;4954735;29;20058;-85
2023/07/29 08:16:36;;;;;;;32.92;12.32;;;;;;;;;;4954846;29;20047;-84
2023/07/29 08:19:10;;;;;;;26.40;10.13;;;;;;;;;;4955333;29;20482;-84
2023/07/29 08:21:44;;;;;;;26.98;10.23;;;;;;;;;;4956518;29;20051;-85
2023/07/29 08:24:15;;;;;;;25.92;11.70;;;;;;;;;;4956195;29;20383;-84
2023/07/29 08:26:48;;;;;;;26.48;9.80;;;;;;;;;;4956395;29;20051;-85
2023/07/29 08:29:18;;;;;;;25.70;9.63;;;;;;;;;;4956767;29;20051;-84
2023/07/29 08:31:51;;;;;;;22.33;9.60;;;;;;;;;;4956201;29;20051;-84
2023/07/29 08:34:21;;;;;;;15.20;7.47;;;;;;;;;;4970591;28;20043;-82
2023/07/29 08:36:53;;;;;;;17.05;8.88;;;;;;;;;;4970942;28;20366;-83
2023/07/29 08:39:28;;;;;;;14.73;7.40;;;;;;;;;;4970421;28;20043;-85
2023/07/29 08:42:06;;;;;;;9.52;5.07;;;;;;;;;;4956153;29;20052;-83
2023/07/29 08:44:44;;;;;;;10.88;5.85;;;;;;;;;;4955788;29;20047;-84
2023/07/29 08:47:20;;;;;;;10.48;5.32;;;;;;;;;;4956002;29;20520;-84
2023/07/29 08:49:53;;;;;;;15.18;6.47;;;;;;;;;;4954448;29;20051;-85
2023/07/29 08:52:26;;;;;;;15.43;7.07;;;;;;;;;;4969542;28;20525;-84
2023/07/29 08:54:59;;;;;;;16.17;7.70;;;;;;;;;;4969330;28;20493;-85
2023/07/29 08:57:32;;;;;;;19.65;7.93;;;;;;;;;;4956316;29;20043;-85
2023/07/29 09:00:04;;;;;;;26.13;8.30;;;;;;;;;;4955607;29;20043;-84
2023/07/29 09:02:35;;;;;;;27.52;9.55;;;;;;;;;;4955921;29;20047;-85
2023/07/29 09:05:07;;;;;;;20.23;8.45;;;;;;;;;;4954444;29;20058;-83
2023/07/29 09:07:40;;;;;;;21.80;9.98;;;;;;;;;;4953867;29;20052;-85
2023/07/29 09:10:14;;;;;;;23.45;8.38;;;;;;;;;;4955585;29;20039;-84
2023/07/29 09:12:44;;;;;;;19.73;7.35;;;;;;;;;;4953282;29;20051;-84
2023/07/29 09:15:29;;;;;;;29.92;11.10;;;;;;;;;;4953219;29;20513;-85
2023/07/29 09:18:15;;;;;;;26.50;9.75;;;;;;;;;;4956000;29;20151;-84
2023/07/29 09:20:50;;;;;;;21.13;8.90;;;;;;;;;;4955684;29;20050;-85
2023/07/29 09:23:21;;;;;;;15.32;6.00;;;;;;;;;;4954117;29;20051;-84
2023/07/29 09:26:00;;;;;;;17.20;7.30;;;;;;;;;;4955673;29;20398;-85
2023/07/29 09:28:40;;;;;;;;;;;;;;;;;;4955722;29;20051;-85
2023/07/29 09:31:20;;;;;;;27.00;9.82;;;;;;;;;;4953523;29;19926;-85
2023/07/29 09:34:05;;;;;;;14.40;6.22;;;;;;;;;;4953075;29;20048;-84
2023/07/29 09:36:35;;;;;;;11.25;4.07;;;;;;;;;;4969720;28;20398;-84
2023/07/29 09:39:17;;;;;;;13.27;6.95;;;;;;;;;;4969593;28;20062;-84
2023/07/29 09:41:49;;;;;;;11.88;5.03;;;;;;;;;;4953344;29;20055;-83
2023/07/29 09:44:20;;;;;;;22.65;7.18;;;;;;;;;;4955024;29;20494;-86
2023/07/29 09:46:50;;;;;;;15.05;6.70;;;;;;;;;;4952986;29;20074;-83
2023/07/29 09:49:23;;;;;;;14.10;6.35;;;;;;;;;;4955706;29;20046;-85
2023/07/29 09:51:58;;;;;;;18.77;8.73;;;;;;;;;;4954480;29;20118;-84
2023/07/29 09:54:32;;;;;;;16.23;7.00;;;;;;;;;;4955275;29;20062;-85
2023/07/29 09:57:07;;;;;;;15.30;7.57;;;;;;;;;;4954965;29;20039;-83
2023/07/29 09:59:39;;;;;;;12.68;6.15;;;;;;;;;;4938804;29;20090;-86
2023/07/29 10:02:17;;;;;;;6.85;3.15;;;;;;;;;;4955150;29;20505;-83
2023/07/29 10:04:49;;;;;;;9.80;4.88;;;;;;;;;;4956743;29;20074;-86
2023/07/29 10:07:21;;;;;;;4.43;2.28;;;;;;;;;;4941753;29;20116;-85
2023/07/29 10:09:57;;;;;;;7.75;3.60;;;;;;;;;;4958985;28;20046;-84
2023/07/29 10:12:30;;;;;;;7.88;3.85;;;;;;;;;;4967479;28;20047;-85
2023/07/29 10:15:05;;;;;;;9.23;4.60;;;;;;;;;;4943404;29;20059;-86
2023/07/29 10:17:40;;;;;;;9.25;4.53;;;;;;;;;;4945220;28;20046;-84
2023/07/29 10:20:12;;;;;;;10.15;4.88;;;;;;;;;;4960233;28;20054;-84
2023/07/29 10:22:46;;;;;;;10.88;5.25;;;;;;;;;;4955586;29;20067;-84
2023/07/29 10:25:21;;;;;;;10.43;5.00;;;;;;;;;;4924738;29;20513;-84
2023/07/29 10:28:05;;;;;;;7.22;3.40;;;;;;;;;;4957867;29;20035;-83
2023/07/29 10:30:36;;;;;;;11.18;5.00;;;;;;;;;;4956032;28;20525;-85
2023/07/29 10:33:10;;;;;;;9.68;4.63;;;;;;;;;;4958591;29;20047;-85
2023/07/29 10:35:43;;;;;;;10.98;5.03;;;;;;;;;;4958133;28;20054;-84
2023/07/29 10:38:13;;;;;;;8.27;3.97;;;;;;;;;;4957982;29;20048;-85
2023/07/29 10:40:59;;;;;;;8.63;4.32;;;;;;;;;;4972661;28;20051;-85
2023/07/29 10:43:32;;;;;;;9.52;4.38;;;;;;;;;;4973336;28;20050;-84
2023/07/29 10:46:23;;;;;;;7.20;3.15;;;;;;;;;;4941694;29;20457;-86
2023/07/29 10:48:57;;;;;;;7.30;3.30;;;;;;;;;;4958577;29;20047;-83
2023/07/29 10:51:39;;;;;;;12.00;5.25;;;;;;;;;;4973348;28;20051;-83
2023/07/29 10:54:14;;;;;;;10.45;4.70;;;;;;;;;;4973078;28;20477;-85
2023/07/29 10:56:50;;;;;;;7.55;3.58;;;;;;;;;;4958140;29;20389;-83
2023/07/29 10:59:21;;;;;;;9.15;3.90;;;;;;;;;;4972983;28;20051;-84
2023/07/29 11:01:58;;;;;;;8.40;4.43;;;;;;;;;;4955532;29;20058;-84
2023/07/29 11:04:33;;;;;;;6.82;3.40;;;;;;;;;;4972815;28;20051;-85
2023/07/29 11:07:10;;;;;;;9.68;4.78;;;;;;;;;;4958143;29;20059;-85
2023/07/29 11:09:57;;;;;;;8.77;4.50;;;;;;;;;;4941234;29;20513;-84
2023/07/29 11:12:37;;;;;;;9.07;4.30;;;;;;;;;;4942024;29;20050;-84
2023/07/29 11:15:19;;;;;;;9.93;4.65;;;;;;;;;;4956329;29;20052;-84
2023/07/29 11:17:52;;;;;;;8.70;4.45;;;;;;;;;;4940463;29;20051;-85
2023/07/29 11:20:28;;;;;;;6.30;3.00;;;;;;;;;;4958541;29;20051;-84
2023/07/29 11:23:02;;;;;;;8.52;4.32;;;;;;;;;;4957891;29;20394;-84
2023/07/29 11:25:35;;;;;;;7.13;3.38;;;;;;;;;;4971255;28;20055;-84
2023/07/29 11:28:06;;;;;;;11.80;5.53;;;;;;;;;;4955243;29;20059;-84
2023/07/29 11:30:40;;;;;;;6.82;2.75;;;;;;;;;;4957071;29;20039;-83
2023/07/29 11:33:11;;;;;;;7.38;3.95;;;;;;;;;;4957510;29;20043;-84
2023/07/29 11:35:45;;;;;;;9.07;4.20;;;;;;;;;;4939646;28;20067;-84
2023/07/29 11:38:19;;;;;;;11.95;4.95;;;;;;;;;;4972290;28;20062;-83
2023/07/29 11:41:00;;;;;;;10.13;4.47;;;;;;;;;;4957109;29;20051;-83
2023/07/29 11:43:35;;;;;;;8.02;3.78;;;;;;;;;;4957408;29;20047;-84
2023/07/29 11:46:11;;;;;;;6.18;3.10;;;;;;;;;;4964058;28;20397;-84
2023/07/29 11:48:45;;;;;;;7.18;3.38;;;;;;;;;;4977452;28;20042;-84
2023/07/29 11:51:15;;;;;;;5.03;2.53;;;;;;;;;;4974737;28;20050;-86
2023/07/29 11:53:46;;;;;;;6.18;2.40;;;;;;;;;;4958496;28;20505;-85
2023/07/29 11:56:19;;;;;;;7.20;3.50;;;;;;;;;;4960122;28;20506;-83
2023/07/29 11:58:55;;;;;;;6.55;3.17;;;;;;;;;;4976900;28;20061;-83
2023/07/29 12:01:25;;;;;;;6.97;2.88;;;;;;;;;;4974322;28;20485;-83
2023/07/29 12:03:59;;;;;;;7.95;3.47;;;;;;;;;;4976591;28;20043;-84
2023/07/29 12:06:32;;;;;;;8.45;3.97;;;;;;;;;;4958597;28;20512;-83
2023/07/29 12:09:03;;;;;;;40.25;13.45;;;;;;;;;;4976258;28;20065;-84
2023/07/29 12:11:34;;;;;;;10.65;5.95;;;;;;;;;;4973668;28;20051;-84
2023/07/29 12:14:10;;;;;;;11.15;5.45;;;;;;;;;;4959629;28;20054;-85
2023/07/29 12:16:45;;;;;;;10.20;5.18;;;;;;;;;;4975438;28;20039;-84
2023/07/29 12:19:17;;;;;;;4.47;2.15;;;;;;;;;;4957782;28;20062;-84
2023/07/29 12:21:49;;;;;;;10.77;4.88;;;;;;;;;;4957797;28;20516;-83
2023/07/29 12:24:19;;;;;;;6.10;3.15;;;;;;;;;;4975030;28;20383;-82
2023/07/29 12:26:51;;;;;;;8.18;4.25;;;;;;;;;;4974360;28;20046;-82
2023/07/29 12:29:22;;;;;;;9.07;3.70;;;;;;;;;;4975358;28;20412;-82
2023/07/29 12:32:02;;;;;;;3.60;1.98;;;;;;;;;;4976420;28;20054;-83
2023/07/29 12:34:36;;;;;;;6.25;3.15;;;;;;;;;;4957963;28;20050;-82
2023/07/29 12:37:09;;;;;;;7.50;4.03;;;;;;;;;;4975330;28;20055;-83
2023/07/29 12:39:42;;;;;;;7.00;3.60;;;;;;;;;;4958216;28;20051;-83
2023/07/29 12:42:12;;;;;;;7.47;3.45;;;;;;;;;;4975649;28;20047;-83
2023/07/29 12:44:44;;;;;;;27.33;10.10;;;;;;;;;;4975653;28;20054;-84
2023/07/29 12:47:15;;;;;;;9.65;5.05;;;;;;;;;;4973850;28;20055;-84
2023/07/29 12:49:45;;;;;;;5.93;3.08;;;;;;;;;;4956139;28;20043;-83
2023/07/29 12:52:15;;;;;;;8.73;4.47;;;;;;;;;;4958037;28;20055;-82
2023/07/29 12:54:46;;;;;;;10.00;5.93;;;;;;;;;;4974605;28;20045;-83
2023/07/29 12:57:17;;;;;;;12.18;6.72;;;;;;;;;;4978368;28;20038;-82
2023/07/29 12:59:49;;;;;;;7.60;3.80;;;;;;;;;;4974699;28;20047;-82
2023/07/29 13:02:19;;;;;;;6.97;3.50;;;;;;;;;;4976310;28;20389;-84
2023/07/29 13:04:51;;;;;;;4.60;1.95;;;;;;;;;;4958582;28;20504;-83
2023/07/29 13:07:22;;;;;;;6.00;2.58;;;;;;;;;;4976176;28;20046;-82
2023/07/29 13:09:53;;;;;;;6.22;3.20;;;;;;;;;;4958157;28;20051;-82
2023/07/29 13:12:23;;;;;;;6.28;3.38;;;;;;;;;;4976122;28;20508;-83
2023/07/29 13:14:54;;;;;;;6.35;3.15;;;;;;;;;;4956721;29;20059;-84
2023/07/29 13:17:25;;;;;;;6.13;2.53;;;;;;;;;;4956245;29;20051;-82
2023/07/29 13:19:56;;;;;;;6.47;3.17;;;;;;;;;;4954227;29;20055;-82
2023/07/29 13:22:27;;;;;;;7.88;3.65;;;;;;;;;;4954894;29;20043;-82
2023/07/29 13:24:57;;;;;;;5.88;2.60;;;;;;;;;;4956228;29;20070;-83
2023/07/29 13:27:32;;;;;;;7.45;3.65;;;;;;;;;;4955949;29;20047;-83
2023/07/29 13:30:02;;;;;;;6.20;3.42;;;;;;;;;;4956506;29;20062;-83
2023/07/29 13:32:32;;;;;;;6.95;3.17;;;;;;;;;;4956497;29;20047;-81
2023/07/29 13:35:03;;;;;;;7.47;3.47;;;;;;;;;;4955326;29;20058;-81
2023/07/29 13:37:35;;;;;;;10.18;3.90;;;;;;;;;;4938958;29;20486;-81
2023/07/29 13:40:13;;;;;;;4.47;2.38;;;;;;;;;;4954494;29;20375;-81
2023/07/29 13:42:44;;;;;;;6.05;2.97;;;;;;;;;;4952894;28;20059;-82
2023/07/29 13:45:14;;;;;;;6.63;2.30;;;;;;;;;;4953200;29;20054;-81
2023/07/29 13:47:45;;;;;;;5.55;2.92;;;;;;;;;;4952924;29;20070;-82
2023/07/29 13:50:21;;;;;;;4.03;1.80;;;;;;;;;;4944150;28;20497;-82
2023/07/29 13:52:51;;;;;;;7.68;3.30;;;;;;;;;;4972390;28;20047;-81
2023/07/29 13:55:22;;;;;;;8.15;3.47;;;;;;;;;;4974256;28;20051;-82
2023/07/29 13:57:54;;;;;;;5.15;2.50;;;;;;;;;;4956547;28;20047;-82
2023/07/29 14:00:30;;;;;;;5.93;3.03;;;;;;;;;;4974460;28;20119;-83
2023/07/29 14:03:04;;;;;;;5.88;2.85;;;;;;;;;;4974884;28;20042;-83
2023/07/29 14:05:38;;;;;;;5.00;2.53;;;;;;;;;;4973312;28;20064;-82
2023/07/29 14:08:10;;;;;;;5.80;3.28;;;;;;;;;;4972996;28;20473;-82
2023/07/29 14:10:41;;;;;;;6.03;2.95;;;;;;;;;;4976606;28;20490;-82
2023/07/29 14:13:14;;;;;;;6.05;2.38;;;;;;;;;;4973890;28;20058;-82
2023/07/29 14:15:46;;;;;;;8.75;3.92;;;;;;;;;;4974695;28;20054;-82
2023/07/29 14:18:16;;;;;;;11.20;4.32;;;;;;;;;;4957054;28;20481;-82
2023/07/29 14:20:49;;;;;;;7.18;3.97;;;;;;;;;;4956331;28;20058;-83
2023/07/29 14:23:23;;;;;;;6.95;4.00;;;;;;;;;;4973269;28;20063;-83
2023/07/29 14:25:56;;;;;;;6.93;3.80;;;;;;;;;;4955881;28;20058;-82
2023/07/29 14:28:25;;;;;;;7.45;3.90;;;;;;;;;;4974101;28;20050;-82
2023/07/29 14:31:00;;;;;;;5.05;3.13;;;;;;;;;;4974366;28;20046;-84
2023/07/29 14:33:34;;;;;;;7.30;2.13;;;;;;;;;;4973122;28;20050;-82
2023/07/29 14:36:04;;;;;;;3.97;2.15;;;;;;;;;;4974349;28;20059;-83
2023/07/29 14:38:36;;;;;;;6.90;3.67;;;;;;;;;;4974030;28;20377;-83
2023/07/29 14:41:07;;;;;;;8.30;3.75;;;;;;;;;;4957238;28;20043;-82
2023/07/29 14:43:40;;;;;;;6.32;2.75;;;;;;;;;;4974403;28;20051;-82
2023/07/29 14:46:10;;;;;;;7.60;4.07;;;;;;;;;;4974214;28;20046;-82
2023/07/29 14:48:41;;;;;;;7.93;4.35;;;;;;;;;;4956517;28;20055;-83
2023/07/29 14:51:11;;;;;;;5.82;2.90;;;;;;;;;;4956790;28;20050;-82
2023/07/29 14:53:45;;;;;;;4.95;2.95;;;;;;;;;;4974574;28;20058;-82
2023/07/29 14:56:17;;;;;;;6.85;3.35;;;;;;;;;;4977569;28;20046;-83
2023/07/29 14:58:51;;;;;;;11.18;2.97;;;;;;;;;;4977475;28;20069;-82
2023/07/29 15:01:21;;;;;;;6.60;3.30;;;;;;;;;;4976782;28;20054;-82
2023/07/29 15:03:53;;;;;;;7.43;2.95;;;;;;;;;;4977159;28;20047;-82
2023/07/29 15:06:27;;;;;;;5.63;2.70;;;;;;;;;;4976993;28;20051;-85
2023/07/29 15:09:01;;;;;;;6.22;2.92;;;;;;;;;;4977064;28;20047;-86
2023/07/29 15:11:34;;;;;;;5.60;2.80;;;;;;;;;;4976891;28;20050;-84
2023/07/29 15:14:06;;;;;;;5.45;2.70;;;;;;;;;;4958373;28;20505;-82
2023/07/29 15:16:39;;;;;;;4.35;2.20;;;;;;;;;;4976972;28;20043;-82